Terminal Aerodrome Forecast
Issued by NWS

Home | Current Version | Previous Version | Text Only | Print | Product List | Glossary On
Versions: 1 2 3 4 5 6 7 8 9 10 11 12 13 14
574
FTUS43 KLSX 111125
TAFSUS
TAF
KSUS 111125Z 1112/1212 19004KT P6SM FEW150
     FM111600 22009KT P6SM SCT150
     FM111800 25013G23KT P6SM SCT150
     FM112100 30015G28KT P6SM BKN045
     FM120400 31015G27KT P6SM OVC025
     FM120800 32013G24KT P6SM SCT025=

USA.gov is the U.S. government's official web portal to all federal, state and local government web resources and services.